Time;durP1;ratioP1;P1;durP2;ratioP2;P2;SDS_P1;SDS_P2;PMS_P1;PMS_P2;Temp;Humidity;BMP_temperature;BMP_pressure;BME280_temperature;BME280_humidity;BME280_pressure;Samples;Min_cycle;Max_cycle;Signal;HPM_P1;HPM_P2
2021/10/08 00:01:15;;;;;;;5.05;4.65;;;;;;;9.41;100.00;94795.86;827726;71;33254;-76
2021/10/08 00:16:16;;;;;;;5.40;4.90;;;;;;;9.38;100.00;94792.46;829695;71;32750;-77
2021/10/08 00:31:15;;;;;;;4.90;4.40;;;;;;;9.38;100.00;94784.61;826310;71;33171;-79
2021/10/08 00:46:16;;;;;;;5.10;4.62;;;;;;;9.37;100.00;94780.44;827253;71;32679;-78
2021/10/08 01:01:20;;;;;;;5.08;4.60;;;;;;;9.29;100.00;94769.23;827266;71;32635;-80
2021/10/08 01:16:23;;;;;;;4.00;3.65;;;;;;;9.13;100.00;94762.77;827179;71;33125;-77
2021/10/08 01:31:09;;;;;;;4.37;3.98;;;;;;;9.07;100.00;94766.47;826688;71;30743;-77
2021/10/08 01:46:14;;;;;;;6.92;4.92;;;;;;;9.05;100.00;94748.17;834409;71;32652;-77
2021/10/08 02:01:14;;;;;;;6.97;5.53;;;;;;;9.02;100.00;94756.02;827902;71;32615;-76
2021/10/08 02:16:08;;;;;;;7.45;5.67;;;;;;;9.05;100.00;94760.73;833892;71;29698;-78
2021/10/08 02:31:14;;;;;;;8.53;6.33;;;;;;;9.02;100.00;94743.73;826279;71;32692;-81
2021/10/08 02:46:16;;;;;;;10.40;7.70;;;;;;;8.99;100.00;94748.19;827359;71;32744;-78
2021/10/08 03:16:09;;;;;;;12.90;7.60;;;;;;;9.00;100.00;94742.42;828060;71;30722;-81
2021/10/08 03:31:09;;;;;;;14.60;9.30;;;;;;;9.06;100.00;94753.11;826860;71;30009;-78
2021/10/08 03:46:10;;;;;;;10.45;7.42;;;;;;;9.01;100.00;94725.69;833981;71;29901;-78
2021/10/08 04:01:13;;;;;;;6.25;5.30;;;;;;;8.92;100.00;94743.80;834008;71;32050;-77
2021/10/08 04:16:16;;;;;;;5.60;4.40;;;;;;;8.91;100.00;94754.53;828082;71;32681;-75
2021/10/08 04:31:15;;;;;;;7.20;4.72;;;;;;;8.94;100.00;94747.43;829154;71;32904;-77
2021/10/08 04:46:10;;;;;;;5.60;4.87;;;;;;;9.00;100.00;94760.74;828251;71;30266;-76
2021/10/08 05:01:11;;;;;;;4.80;4.05;;;;;;;9.00;100.00;94758.13;828107;71;31417;-79
2021/10/08 05:16:08;;;;;;;6.47;5.08;;;;;;;8.97;100.00;94739.05;828572;71;29430;-77
2021/10/08 05:31:08;;;;;;;8.00;4.70;;;;;;;8.97;100.00;94744.29;827863;71;29715;-78
2021/10/08 05:46:08;;;;;;;6.67;5.03;;;;;;;8.98;100.00;94760.23;815337;71;30224;-77
2021/10/08 06:01:09;;;;;;;8.40;4.90;;;;;;;8.92;100.00;94745.61;833897;71;30590;-77
2021/10/08 06:16:08;;;;;;;8.23;5.45;;;;;;;8.90;100.00;94758.98;827993;71;29643;-77
2021/10/08 06:31:11;;;;;;;3.62;3.30;;;;;;;8.90;100.00;94742.48;827058;71;31452;-78
2021/10/08 06:46:20;;;;;;;3.52;3.22;;;;;;;8.95;100.00;94759.48;827304;71;32721;-77
2021/10/08 07:01:09;;;;;;;3.95;3.55;;;;;;;8.99;100.00;94772.28;833792;71;30770;-78
2021/10/08 07:16:25;;;;;;;3.58;3.00;;;;;;;9.02;100.00;94779.07;828065;71;30763;-77
2021/10/08 07:31:14;;;;;;;4.67;3.65;;;;;;;9.05;100.00;94813.61;826545;71;32889;-78
2021/10/08 07:46:18;;;;;;;4.05;3.67;;;;;;;9.01;100.00;94837.69;827731;71;32683;-76
2021/10/08 08:01:14;;;;;;;3.77;3.47;;;;;;;9.05;100.00;94866.73;827381;71;32735;-77
2021/10/08 08:16:10;;;;;;;3.27;2.70;;;;;;;9.04;100.00;94891.33;827914;71;30258;-77
2021/10/08 08:31:15;;;;;;;3.42;3.12;;;;;;;9.00;100.00;94892.41;825541;71;32671;-77
2021/10/08 08:46:08;;;;;;;3.30;2.80;;;;;;;9.01;100.00;94916.73;828538;71;29783;-76
2021/10/08 09:16:09;;;;;;;1.90;1.80;;;;;;;8.85;100.00;94873.35;835044;71;29728;-79
2021/10/08 09:31:13;;;;;;;2.00;1.90;;;;;;;8.90;100.00;94871.51;827693;71;32579;-79
2021/10/08 09:46:22;;;;;;;3.72;2.10;;;;;;;8.94;100.00;94896.59;827888;71;33262;-79
2021/10/08 10:01:10;;;;;;;1.57;1.57;;;;;;;9.01;100.00;94891.88;835337;71;29637;-78
2021/10/08 10:16:09;;;;;;;2.60;1.87;;;;;;;9.00;100.00;94875.39;833714;71;29756;-76
2021/10/08 10:31:12;;;;;;;2.75;2.55;;;;;;;8.89;100.00;94858.16;831905;71;30273;-77
2021/10/08 10:46:30;;;;;;;2.60;2.42;;;;;;;8.87;100.00;94812.38;827248;71;33176;-75
2021/10/08 11:01:10;;;;;;;1.80;1.70;;;;;;;8.93;100.00;94832.23;828072;71;29687;-77
2021/10/08 11:16:18;;;;;;;2.20;2.10;;;;;;;9.16;100.00;94839.97;828836;71;32701;-76
2021/10/08 11:31:11;;;;;;;1.82;1.72;;;;;;;9.37;100.00;94843.28;828173;71;30192;-78
2021/10/08 12:01:07;;;;;;;2.05;1.95;;;;;;;;;;833943;71;29642;-76
2021/10/08 12:16:10;;;;;;;3.45;3.22;;;;;;;9.48;100.00;94842.16;827741;71;31261;-77
2021/10/08 12:31:14;;;;;;;2.87;2.67;;;;;;;9.20;100.00;94832.64;822626;71;32706;-76
2021/10/08 12:46:18;;;;;;;4.65;3.65;;;;;;;9.18;100.00;94824.78;828284;71;30230;-76
2021/10/08 13:01:18;;;;;;;2.72;2.50;;;;;;;9.12;100.00;94837.11;833894;71;33462;-79
2021/10/08 13:16:15;;;;;;;2.58;2.42;;;;;;;8.74;100.00;94847.22;833827;71;32646;-74
2021/10/08 13:31:08;;;;;;;2.87;2.67;;;;;;;8.44;100.00;94843.38;827730;71;29695;-77
2021/10/08 13:46:15;;;;;;;4.42;3.25;;;;;;;8.26;100.00;94827.17;827316;71;33094;-78
2021/10/08 14:01:13;;;;;;;5.55;3.42;;;;;;;8.19;100.00;94805.23;834001;71;31674;-77
2021/10/08 14:16:08;;;;;;;4.50;3.58;;;;;;;8.22;100.00;94808.61;828187;71;29733;-76
2021/10/08 14:31:15;;;;;;;6.78;6.08;;;;;;;8.32;100.00;94801.27;830448;71;32658;-79
2021/10/08 15:16:16;;;;;;;2.60;2.40;;;;;;;7.51;100.00;94829.02;828113;71;31838;-77
2021/10/08 15:31:14;;;;;;;2.27;2.17;;;;;;;7.55;100.00;94834.51;830728;71;31727;-76
2021/10/08 15:46:12;;;;;;;3.33;2.90;;;;;;;7.56;100.00;94847.31;821075;71;31044;-78
2021/10/08 16:01:09;;;;;;;3.55;3.25;;;;;;;7.45;100.00;94869.73;828383;71;29323;-80
2021/10/08 16:16:10;;;;;;;4.85;4.30;;;;;;;7.34;100.00;94884.56;827897;71;29254;-79
2021/10/08 16:31:11;;;;;;;3.30;3.10;;;;;;;7.38;100.00;94880.41;793398;74;29351;-79
2021/10/08 16:46:19;;;;;;;3.25;2.95;;;;;;;7.51;100.00;94892.98;833980;71;31726;-77
2021/10/08 17:01:16;;;;;;;3.27;2.98;;;;;;;7.58;100.00;94910.50;833832;71;31717;-78
2021/10/08 17:46:10;;;;;;;3.10;2.90;;;;;;;7.42;100.00;94907.56;828440;71;29560;-79
2021/10/08 18:01:16;;;;;;;2.42;2.22;;;;;;;7.34;100.00;94925.83;829065;71;31739;-78
2021/10/08 18:16:25;;;;;;;3.20;2.95;;;;;;;7.35;100.00;94930.00;834231;71;31791;-76
2021/10/08 18:31:09;;;;;;;3.90;3.50;;;;;;;7.27;100.00;94928.41;827430;71;29812;-79
2021/10/08 18:46:17;;;;;;;4.28;3.77;;;;;;;7.50;100.00;94921.95;827513;71;32196;-80
2021/10/08 19:01:09;;;;;;;5.17;4.62;;;;;;;7.91;100.00;94921.52;828110;71;29685;-79
2021/10/08 19:31:08;;;;;;;5.30;3.87;;;;;;;8.13;98.25;94930.93;827735;71;29546;-77
2021/10/08 20:01:14;;;;;;;3.75;3.45;;;;;;;8.23;97.64;94947.42;827452;71;33293;-80
2021/10/08 20:16:17;;;;;;;3.37;3.10;;;;;;;8.24;95.95;94949.51;828123;71;32255;-80
2021/10/08 20:31:08;;;;;;;3.70;3.40;;;;;;;7.98;94.38;94945.55;822269;71;29374;-78
2021/10/08 20:46:09;;;;;;;2.40;2.20;;;;;;;7.75;92.49;94956.50;828116;71;30233;-76
2021/10/08 21:16:08;;;;;;;3.00;2.60;;;;;;;7.67;91.84;94949.17;828569;71;29794;-78
2021/10/08 21:31:08;;;;;;;2.22;2.12;;;;;;;7.54;92.96;94943.39;823919;71;30141;-77
2021/10/08 21:46:10;;;;;;;2.02;1.92;;;;;;;7.77;92.21;94946.58;828220;71;30099;-76
2021/10/08 22:01:20;;;;;;;2.00;1.90;;;;;;;7.59;91.98;94955.67;826752;71;30207;-78
2021/10/08 22:16:10;;;;;;;2.05;1.95;;;;;;;7.79;91.01;94951.02;819885;71;29795;-78
2021/10/08 22:46:09;;;;;;;2.12;1.90;;;;;;;7.34;89.90;94948.02;829244;71;29322;-78
2021/10/08 23:01:14;;;;;;;1.32;1.32;;;;;;;6.77;90.11;94945.66;819143;71;32752;-79
2021/10/08 23:16:15;;;;;;;1.40;1.30;;;;;;;6.24;92.49;94949.19;819797;71;32871;-77
2021/10/08 23:31:10;;;;;;;1.98;1.47;;;;;;;6.32;93.52;94941.69;817792;71;30296;-77
2021/10/08 23:46:09;;;;;;;1.32;1.32;;;;;;;6.58;92.86;94931.45;828251;71;29400;-78
